createdAt,value
2022-09-05T00:00:43.351Z,89.97
2022-09-05T00:01:43.335Z,89.87
2022-09-05T00:02:49.348Z,89.97
2022-09-05T00:03:44.527Z,89.72
2022-09-05T00:04:43.300Z,89.01
2022-09-05T00:05:50.993Z,89.01
2022-09-05T00:06:44.263Z,89.22
2022-09-05T00:07:58.186Z,88.81
2022-09-05T00:08:44.291Z,88.91
2022-09-05T00:09:43.251Z,89.01
2022-09-05T00:11:16.748Z,88.71
2022-09-05T00:11:44.352Z,88.81
2022-09-05T00:12:43.203Z,89.01
2022-09-05T00:13:43.225Z,89.01
2022-09-05T00:15:15.169Z,89.01
2022-09-05T00:15:44.244Z,89.52
2022-09-05T00:16:43.157Z,88.91
2022-09-05T00:18:26.699Z,88.71
2022-09-05T00:24:19.004Z,88.91
2022-09-05T00:24:19.136Z,88.81
2022-09-05T00:24:25.765Z,88.91
2022-09-05T00:24:25.995Z,89.01
2022-09-05T00:24:26.077Z,88.91
2022-09-05T00:24:30.374Z,89.11
2022-09-05T00:25:06.907Z,89.22
2022-09-05T00:25:44.073Z,89.11
2022-09-05T00:26:49.974Z,89.01
2022-09-05T00:27:44.065Z,88.60
2022-09-05T00:28:43.049Z,88.81
2022-09-05T00:30:55.298Z,88.71
2022-09-05T00:31:50.699Z,88.81
2022-09-05T00:31:53.881Z,88.60
2022-09-05T00:32:44.085Z,88.91
2022-09-05T00:33:42.960Z,88.81
2022-09-05T00:34:47.868Z,88.50
2022-09-05T00:35:43.939Z,88.26
2022-09-05T00:36:42.917Z,88.56
2022-09-05T00:37:42.929Z,88.46
2022-09-05T00:38:42.952Z,88.50
2022-09-05T00:39:48.588Z,88.50
2022-09-05T00:40:43.881Z,88.60
2022-09-05T00:41:42.890Z,88.81
2022-09-05T00:42:42.869Z,89.11
2022-09-05T00:43:42.896Z,88.91
2022-09-05T00:44:42.849Z,89.01
2022-09-05T00:45:42.825Z,88.81
2022-09-05T00:46:42.892Z,88.81
2022-09-05T00:47:47.848Z,88.60
2022-09-05T00:48:43.816Z,88.71
2022-09-05T00:49:42.787Z,89.11
2022-09-05T00:50:42.765Z,89.31
2022-09-05T00:51:42.767Z,89.11
2022-09-05T00:52:42.743Z,89.01
2022-09-05T00:53:43.767Z,88.91
2022-09-05T00:54:42.725Z,88.71
2022-09-05T00:55:42.731Z,88.81
2022-09-05T00:56:42.710Z,89.11
2022-09-05T00:57:42.687Z,88.81
2022-09-05T00:58:42.709Z,88.50
2022-09-05T00:59:42.661Z,88.71
2022-09-05T01:00:43.640Z,88.20
2022-09-05T01:01:42.747Z,88.20
2022-09-05T01:02:51.688Z,87.75
2022-09-05T01:03:43.672Z,87.55
2022-09-05T01:04:42.625Z,87.45
2022-09-05T01:05:42.613Z,87.75
2022-09-05T01:06:42.585Z,87.65
2022-09-05T01:07:46.729Z,87.95
2022-09-05T01:08:42.641Z,88.10
2022-09-05T01:09:42.556Z,88.10
2022-09-05T01:10:42.517Z,88.71
2022-09-05T01:11:42.528Z,88.91
2022-09-05T01:12:42.503Z,89.83
2022-09-05T01:13:43.533Z,89.76
2022-09-05T01:14:42.493Z,90.07
2022-09-05T01:15:42.541Z,89.56
2022-09-05T01:16:42.492Z,89.76
2022-09-05T01:17:42.469Z,89.76
2022-09-05T01:18:42.492Z,89.46
2022-09-05T01:19:42.455Z,89.66
2022-09-05T01:20:42.432Z,89.56
2022-09-05T01:21:48.188Z,89.56
2022-09-05T01:22:43.405Z,89.26
2022-09-05T01:23:42.432Z,88.95
2022-09-05T01:24:42.382Z,89.26
2022-09-05T01:25:44.113Z,89.15
2022-09-05T01:26:43.362Z,88.85
2022-09-05T01:29:13.613Z,89.05
2022-09-05T01:29:17.757Z,88.85
2022-09-05T01:29:43.357Z,88.85
2022-09-05T01:30:42.345Z,89.05
2022-09-05T01:31:42.312Z,88.75
2022-09-05T01:32:42.304Z,89.05
2022-09-05T01:33:42.330Z,89.05
2022-09-05T01:34:42.259Z,89.05
2022-09-05T01:35:42.269Z,89.15
2022-09-05T01:36:43.247Z,89.15
2022-09-05T01:37:42.259Z,89.36
2022-09-05T01:38:43.020Z,89.61
2022-09-05T01:40:16.144Z,90.01
2022-09-05T01:40:43.941Z,89.91
2022-09-05T01:41:43.189Z,90.42
2022-09-05T01:42:42.190Z,90.42
2022-09-05T01:43:42.213Z,90.42
2022-09-05T01:44:42.197Z,90.56
2022-09-05T01:45:42.141Z,90.56
2022-09-05T01:46:42.237Z,90.66
2022-09-05T01:47:42.106Z,90.52
2022-09-05T01:48:44.525Z,90.62
2022-09-05T01:49:43.091Z,90.86
2022-09-05T01:50:42.094Z,90.66
2022-09-05T01:51:42.094Z,90.66
2022-09-05T01:52:49.412Z,90.77
2022-09-05T01:53:43.079Z,90.66
2022-09-05T01:54:42.049Z,90.56
2022-09-05T01:56:04.052Z,90.77
2022-09-05T01:56:43.040Z,90.56
2022-09-05T01:57:42.001Z,90.77
2022-09-05T01:58:42.034Z,90.86
2022-09-05T01:59:45.871Z,91.07
2022-09-05T02:00:41.992Z,91.27
2022-09-05T02:01:42.016Z,91.27
2022-09-05T02:02:50.176Z,91.38
2022-09-05T02:03:42.963Z,90.97
2022-09-05T02:04:41.932Z,90.86
2022-09-05T02:05:48.649Z,90.56
2022-09-05T02:06:44.094Z,90.52
2022-09-05T02:07:41.894Z,90.31
2022-09-05T02:08:41.984Z,90.11
2022-09-05T02:09:41.898Z,90.11
2022-09-05T02:10:41.876Z,90.11
2022-09-05T02:11:41.850Z,90.11
2022-09-05T02:12:41.858Z,90.01
2022-09-05T02:13:41.823Z,89.91
2022-09-05T02:14:41.851Z,89.91
2022-09-05T02:15:41.848Z,89.61
2022-09-05T02:16:41.808Z,89.91
2022-09-05T02:17:50.525Z,89.81
2022-09-05T02:18:42.768Z,89.61
2022-09-05T02:19:41.787Z,89.30
2022-09-05T02:20:41.751Z,89.61
2022-09-05T02:21:56.647Z,89.50
2022-09-05T02:22:42.738Z,89.50
2022-09-05T02:23:42.584Z,89.70
2022-09-05T02:24:41.735Z,89.61
2022-09-05T02:26:03.225Z,89.70
2022-09-05T02:26:42.676Z,89.70
2022-09-05T02:28:04.453Z,89.81
2022-09-05T02:28:42.665Z,89.50
2022-09-05T02:29:41.709Z,89.50
2022-09-05T02:30:48.456Z,89.70
2022-09-05T02:31:42.714Z,89.70
2022-09-05T02:32:43.310Z,89.50
2022-09-05T02:33:41.601Z,89.70
2022-09-05T02:34:41.636Z,89.81
2022-09-05T02:35:41.587Z,89.70
2022-09-05T02:36:41.578Z,89.91
2022-09-05T02:39:51.957Z,89.81
2022-09-05T02:44:18.285Z,89.70
2022-09-05T02:45:01.105Z,89.50
2022-09-05T02:45:06.536Z,89.30
2022-09-05T02:45:07.435Z,89.70
2022-09-05T02:45:08.516Z,89.40
2022-09-05T02:45:18.726Z,89.30
2022-09-05T02:45:24.531Z,89.20
2022-09-05T02:45:42.516Z,89.40
2022-09-05T02:46:41.595Z,89.70
2022-09-05T02:47:41.440Z,90.01
2022-09-05T02:48:41.439Z,89.91
2022-09-05T02:51:02.541Z,89.70
2022-09-05T02:57:12.758Z,89.81
2022-09-05T02:57:28.763Z,89.81
2022-09-05T02:57:29.378Z,89.81
2022-09-05T02:57:29.886Z,89.81
2022-09-05T02:57:36.528Z,89.81
2022-09-05T02:57:38.790Z,90.01
2022-09-05T02:57:39.225Z,89.91
2022-09-05T02:58:07.217Z,90.22
2022-09-05T02:59:08.164Z,90.22
2022-09-05T02:59:42.350Z,90.31
2022-09-05T03:00:41.292Z,90.31
2022-09-05T03:01:41.296Z,90.42
2022-09-05T03:02:41.338Z,90.31
2022-09-05T03:03:41.262Z,90.31
2022-09-05T03:04:41.296Z,90.52
2022-09-05T03:05:41.258Z,90.62
2022-09-05T03:06:41.230Z,90.77
2022-09-05T03:07:41.228Z,90.97
2022-09-05T03:08:41.221Z,91.07
2022-09-05T03:09:41.235Z,91.17
2022-09-05T03:10:53.757Z,91.07
2022-09-05T03:11:42.181Z,91.17
2022-09-05T03:12:41.171Z,91.27
2022-09-05T03:13:46.356Z,91.27
2022-09-05T03:14:42.148Z,91.48
2022-09-05T03:15:41.138Z,91.27
2022-09-05T03:16:47.005Z,91.27
2022-09-05T03:17:42.105Z,91.38
2022-09-05T03:18:41.132Z,91.07
2022-09-05T03:19:46.447Z,90.97
2022-09-05T03:20:42.075Z,90.86
2022-09-05T03:21:41.074Z,90.72
2022-09-05T03:22:41.059Z,90.86
2022-09-05T03:23:41.070Z,90.97
2022-09-05T03:24:41.037Z,91.07
2022-09-05T03:25:42.010Z,90.97
2022-09-05T03:26:41.013Z,90.97
2022-09-05T03:27:40.989Z,90.97
2022-09-05T03:28:41.004Z,91.27
2022-09-05T03:29:41.021Z,91.17
2022-09-05T03:30:41.027Z,90.77
2022-09-05T03:31:40.964Z,90.77
2022-09-05T03:32:42.141Z,91.17
2022-09-05T03:33:40.922Z,90.77
2022-09-05T03:34:40.935Z,90.86
2022-09-05T03:35:40.891Z,90.97
2022-09-05T03:36:40.895Z,90.46
2022-09-05T03:37:40.873Z,90.25
2022-09-05T03:38:40.922Z,90.05
2022-09-05T03:39:40.930Z,89.85
2022-09-05T03:40:40.864Z,90.16
2022-09-05T03:41:41.048Z,90.25
2022-09-05T03:42:40.830Z,90.25
2022-09-05T03:43:40.858Z,90.46
2022-09-05T03:44:40.818Z,90.56
2022-09-05T03:45:40.780Z,90.77
2022-09-05T03:46:40.795Z,91.01
2022-09-05T03:47:40.768Z,90.81
2022-09-05T03:48:40.768Z,90.91
2022-09-05T03:56:08.968Z,91.01
2022-09-05T03:57:04.295Z,91.22
2022-09-05T03:57:11.219Z,91.22
2022-09-05T03:57:12.605Z,91.22
2022-09-05T03:57:14.438Z,91.22
2022-09-05T03:57:19.054Z,91.11
2022-09-05T03:57:25.240Z,91.11
2022-09-05T03:57:27.282Z,91.22
2022-09-05T03:57:42.895Z,91.11
2022-09-05T03:58:57.228Z,91.01
2022-09-05T03:59:41.669Z,91.22
2022-09-05T04:00:40.632Z,91.22
2022-09-05T04:03:15.868Z,91.42
2022-09-05T04:05:48.315Z,91.62
2022-09-05T04:06:01.001Z,91.77
2022-09-05T04:08:08.950Z,91.31
2022-09-05T04:08:17.181Z,91.42
2022-09-05T04:08:18.710Z,91.62
2022-09-05T04:08:23.603Z,91.22
2022-09-05T04:08:43.180Z,91.66
2022-09-05T04:09:50.624Z,91.77
2022-09-05T04:10:41.611Z,91.56
2022-09-05T04:11:40.481Z,91.66
2022-09-05T04:12:40.473Z,92.07
2022-09-05T04:13:40.499Z,91.97
2022-09-05T04:14:40.456Z,92.07
2022-09-05T04:15:40.445Z,92.18
2022-09-05T04:16:40.517Z,92.18
2022-09-05T04:17:40.425Z,92.07
2022-09-05T04:18:40.457Z,91.87
2022-09-05T04:19:40.418Z,91.77
2022-09-05T04:20:40.796Z,91.87
2022-09-05T04:21:40.396Z,91.97
2022-09-05T04:22:40.384Z,92.27
2022-09-05T04:23:40.390Z,92.38
2022-09-05T04:24:40.988Z,92.63
2022-09-05T04:25:40.353Z,92.72
2022-09-05T04:26:40.326Z,92.72
2022-09-05T04:27:40.329Z,92.63
2022-09-05T04:28:41.426Z,93.33
2022-09-05T04:29:41.293Z,92.93
2022-09-05T04:30:40.664Z,93.03
2022-09-05T04:31:40.301Z,93.24
2022-09-05T04:32:40.279Z,93.03
2022-09-05T04:33:40.233Z,93.24
2022-09-05T04:34:40.281Z,93.33
2022-09-05T04:35:40.266Z,93.33
2022-09-05T04:36:40.237Z,93.64
2022-09-05T04:37:48.567Z,93.64
2022-09-05T04:38:41.206Z,93.64
2022-09-05T04:39:40.239Z,93.54
2022-09-05T04:40:40.180Z,93.44
2022-09-05T04:41:40.350Z,93.44
2022-09-05T04:42:40.161Z,93.54
2022-09-05T04:43:40.147Z,93.13
2022-09-05T04:44:40.179Z,93.03
2022-09-05T04:45:40.217Z,92.83
2022-09-05T04:46:48.803Z,92.38
2022-09-05T04:47:41.088Z,92.18
2022-09-05T04:48:40.075Z,92.07
2022-09-05T04:49:40.101Z,91.97
2022-09-05T04:50:40.062Z,92.07
2022-09-05T04:51:40.047Z,91.87
2022-09-05T04:52:40.065Z,91.97
2022-09-05T04:53:40.042Z,91.87
2022-09-05T04:54:40.071Z,91.87
2022-09-05T04:55:40.021Z,91.97
2022-09-05T04:56:39.999Z,91.77
2022-09-05T04:57:39.989Z,91.77
2022-09-05T05:00:48.435Z,91.52
2022-09-05T05:02:15.089Z,91.31
2022-09-05T05:05:58.863Z,91.22
2022-09-05T05:06:02.381Z,90.66
2022-09-05T05:06:05.204Z,90.97
2022-09-05T05:06:05.784Z,90.25
2022-09-05T05:06:17.341Z,89.00
2022-09-05T05:06:19.941Z,89.30
2022-09-05T05:06:46.445Z,88.65
2022-09-05T05:07:40.925Z,88.04
2022-09-05T05:08:40.089Z,87.43
2022-09-05T05:09:39.838Z,87.29
2022-09-05T05:14:09.265Z,86.98
2022-09-05T05:17:53.835Z,87.04
2022-09-05T05:17:55.596Z,86.43
2022-09-05T05:17:57.987Z,85.92
2022-09-05T05:18:03.938Z,86.22
2022-09-05T05:18:11.315Z,85.72
2022-09-05T05:18:11.480Z,85.82
2022-09-05T05:18:15.463Z,85.58
2022-09-05T05:18:55.980Z,85.78
2022-09-05T05:19:40.787Z,85.38
2022-09-05T05:20:43.726Z,85.24
2022-09-05T05:21:39.742Z,85.03
2022-09-05T05:22:39.712Z,84.52
2022-09-05T05:23:39.710Z,84.72
2022-09-05T05:24:39.669Z,84.52
2022-09-05T05:25:39.656Z,84.01
2022-09-05T05:26:39.681Z,84.22
2022-09-05T05:27:39.929Z,83.77
2022-09-05T05:28:39.632Z,83.47
2022-09-05T05:29:39.651Z,83.37
2022-09-05T05:30:39.612Z,83.26
2022-09-05T05:31:39.644Z,83.37
2022-09-05T05:32:45.725Z,82.76
2022-09-05T05:33:40.603Z,82.72
2022-09-05T05:34:39.589Z,83.03
2022-09-05T05:35:48.070Z,82.62
2022-09-05T05:36:40.539Z,82.42
2022-09-05T05:37:39.545Z,81.87
2022-09-05T05:38:39.549Z,81.97
2022-09-05T05:39:39.598Z,81.57
2022-09-05T05:40:50.525Z,81.73
2022-09-05T05:41:40.473Z,81.16
2022-09-05T05:42:39.468Z,81.32
2022-09-05T05:43:42.906Z,81.52
2022-09-05T05:44:40.462Z,81.43
2022-09-05T05:45:39.529Z,80.52
2022-09-05T05:46:39.449Z,81.12
2022-09-05T05:47:39.439Z,81.73
2022-09-05T05:48:39.421Z,80.98
2022-09-05T05:49:39.425Z,80.27
2022-09-05T05:50:39.395Z,79.87
2022-09-05T05:52:01.724Z,80.04
2022-09-05T05:52:40.383Z,80.24
2022-09-05T05:53:43.351Z,80.13
2022-09-05T05:54:39.371Z,79.93
2022-09-05T05:55:51.848Z,80.27
2022-09-05T05:56:40.317Z,80.78
2022-09-05T05:57:39.322Z,81.05
2022-09-05T05:58:39.315Z,80.13
2022-09-05T05:59:39.332Z,80.13
2022-09-05T06:00:39.258Z,80.24
2022-09-05T06:01:39.400Z,81.15
2022-09-05T06:02:39.364Z,81.55
2022-09-05T06:03:39.326Z,82.87
2022-09-05T06:04:44.740Z,83.21
2022-09-05T06:05:40.221Z,82.30
2022-09-05T06:06:39.290Z,82.14
2022-09-05T06:08:07.519Z,83.25
2022-09-05T06:11:47.734Z,83.04
2022-09-05T06:12:40.149Z,83.55
2022-09-05T06:14:48.389Z,82.84
2022-09-05T06:14:51.884Z,82.84
2022-09-05T06:15:00.011Z,83.86
2022-09-05T06:15:00.481Z,82.64
2022-09-05T06:15:03.787Z,83.45
2022-09-05T06:15:40.105Z,83.15
2022-09-05T06:16:39.157Z,82.40
2022-09-05T06:17:39.083Z,82.20
2022-09-05T06:18:42.623Z,82.34
2022-09-05T06:20:45.927Z,82.81
2022-09-05T06:22:07.537Z,82.90
2022-09-05T06:22:07.729Z,83.01
2022-09-05T06:22:40.015Z,81.65
2022-09-05T06:23:40.106Z,82.67
2022-09-05T06:24:39.036Z,82.06
2022-09-05T06:25:38.988Z,81.71
2022-09-05T06:26:38.975Z,82.42
2022-09-05T06:27:57.996Z,81.11
2022-09-05T06:28:39.981Z,80.84
2022-09-05T06:29:39.768Z,81.21
2022-09-05T06:30:38.945Z,81.21
2022-09-05T06:31:38.990Z,82.12
2022-09-05T06:32:38.925Z,81.37
2022-09-05T06:33:38.925Z,80.97
2022-09-05T06:34:38.870Z,81.07
2022-09-05T06:35:38.898Z,80.77
2022-09-05T06:36:38.864Z,81.84
2022-09-05T06:37:38.850Z,79.99
2022-09-05T06:38:38.849Z,78.37
2022-09-05T06:39:38.877Z,77.83
2022-09-05T06:40:39.836Z,76.78
2022-09-05T06:41:38.812Z,76.64
2022-09-05T06:42:43.394Z,77.55
2022-09-05T06:43:39.792Z,77.19
2022-09-05T06:44:38.774Z,76.78
2022-09-05T06:45:38.815Z,76.38
2022-09-05T06:47:05.809Z,78.56
2022-09-05T06:47:39.792Z,76.10
2022-09-05T06:48:46.475Z,75.50
2022-09-05T06:49:42.807Z,75.50
2022-09-05T06:51:07.064Z,76.97
2022-09-05T06:51:44.849Z,75.36
2022-09-05T06:52:39.679Z,74.52
2022-09-05T06:53:38.686Z,74.58
2022-09-05T06:54:38.670Z,73.88
2022-09-05T06:55:39.715Z,73.08
2022-09-05T06:56:38.636Z,74.79
2022-09-05T06:57:40.022Z,73.88
2022-09-05T06:58:39.617Z,74.15
2022-09-05T06:59:38.599Z,74.25
2022-09-05T07:00:38.682Z,74.01
2022-09-05T07:02:00.546Z,73.21
2022-09-05T07:02:59.132Z,72.41
2022-09-05T07:03:39.569Z,72.94
2022-09-05T07:05:37.585Z,75.09
2022-09-05T07:05:42.840Z,72.64
2022-09-05T07:07:01.064Z,73.44
2022-09-05T07:07:45.670Z,73.00
2022-09-05T07:08:39.502Z,71.40
2022-09-05T07:09:38.474Z,71.47
2022-09-05T07:10:39.514Z,71.56
2022-09-05T07:11:38.475Z,71.77
2022-09-05T07:12:38.432Z,71.47
2022-09-05T07:13:44.424Z,69.53
2022-09-05T07:14:39.430Z,71.03
2022-09-05T07:15:38.489Z,70.69
2022-09-05T07:16:39.067Z,70.26
2022-09-05T07:17:59.701Z,71.12
2022-09-05T07:18:39.383Z,68.19
2022-09-05T07:19:38.383Z,67.82
2022-09-05T07:21:12.192Z,69.56
2022-09-05T07:21:39.353Z,70.73
2022-09-05T07:22:48.613Z,70.73
2022-09-05T07:24:05.596Z,69.99
2022-09-05T07:24:54.944Z,68.22
2022-09-05T07:25:39.371Z,68.62
2022-09-05T07:26:53.973Z,69.35
2022-09-05T07:27:46.854Z,70.06
2022-09-05T07:28:39.278Z,70.83
2022-09-05T07:29:38.271Z,72.03
2022-09-05T07:30:38.269Z,71.13
2022-09-05T07:31:38.507Z,71.50
2022-09-05T07:32:38.239Z,70.66
2022-09-05T07:33:38.233Z,70.83
2022-09-05T07:34:38.203Z,70.12
2022-09-05T07:35:41.830Z,68.99
2022-09-05T07:36:38.225Z,70.26
2022-09-05T07:37:38.199Z,68.52
2022-09-05T07:38:48.327Z,66.49
2022-09-05T07:39:39.214Z,66.59
2022-09-05T07:40:38.161Z,66.49
2022-09-05T07:41:38.168Z,68.23
2022-09-05T07:42:38.129Z,68.55
2022-09-05T07:43:38.102Z,70.09
2022-09-05T07:44:38.091Z,70.06
2022-09-05T07:45:38.108Z,71.06
2022-09-05T07:46:38.132Z,71.96
2022-09-05T07:47:38.083Z,71.12
2022-09-05T07:48:38.062Z,70.56
2022-09-05T07:49:42.237Z,72.56
2022-09-05T07:55:13.811Z,70.32
2022-09-05T07:56:48.858Z,70.43
2022-09-05T07:56:54.710Z,70.93
2022-09-05T07:56:55.335Z,69.82
2022-09-05T07:57:06.509Z,72.00
2022-09-05T07:57:08.983Z,70.86
2022-09-05T07:57:09.218Z,72.83
2022-09-05T07:57:50.841Z,73.03
2022-09-05T07:58:38.951Z,75.58
2022-09-05T07:59:37.945Z,73.13
2022-09-05T08:00:37.947Z,73.84
2022-09-05T08:01:39.702Z,76.17
2022-09-05T08:02:37.894Z,70.79
2022-09-05T08:03:37.883Z,69.53
2022-09-05T08:04:37.953Z,69.73
2022-09-05T08:05:37.983Z,66.39
2022-09-05T08:07:45.910Z,66.36
2022-09-05T08:07:49.960Z,66.30
2022-09-05T08:08:38.976Z,64.54
2022-09-05T08:10:06.092Z,63.85
2022-09-05T08:11:22.469Z,63.25
2022-09-05T08:11:38.829Z,63.52
2022-09-05T08:12:46.592Z,62.89
2022-09-05T08:13:39.136Z,63.12
2022-09-05T08:14:45.320Z,62.48
2022-09-05T08:16:02.798Z,64.37
2022-09-05T08:16:38.806Z,63.68
2022-09-05T08:17:37.735Z,65.08
2022-09-05T08:18:37.711Z,66.31
2022-09-05T08:19:37.718Z,62.82
2022-09-05T08:20:37.678Z,63.98
2022-09-05T08:21:40.005Z,62.49
2022-09-05T08:22:37.664Z,63.05
2022-09-05T08:23:37.663Z,64.09
2022-09-05T08:24:37.667Z,61.43
2022-09-05T08:25:56.562Z,62.62
2022-09-05T08:26:38.627Z,62.29
2022-09-05T08:27:37.621Z,64.58
2022-09-05T08:28:39.094Z,61.50
2022-09-05T08:29:37.615Z,61.96
2022-09-05T08:30:37.620Z,65.08
2022-09-05T08:31:41.663Z,63.15
2022-09-05T08:32:37.577Z,64.61
2022-09-05T08:33:37.563Z,64.12
2022-09-05T08:34:44.601Z,63.02
2022-09-05T08:35:38.585Z,62.89
2022-09-05T08:36:37.526Z,62.46
2022-09-05T08:37:37.509Z,60.87
2022-09-05T08:38:40.979Z,61.63
2022-09-05T08:39:37.510Z,63.12
2022-09-05T08:40:37.506Z,61.83
2022-09-05T08:41:50.319Z,61.69
2022-09-05T08:42:38.458Z,62.42
2022-09-05T08:46:36.112Z,63.25
2022-09-05T08:46:37.994Z,62.72
2022-09-05T08:46:47.411Z,63.52
2022-09-05T08:46:49.033Z,65.21
2022-09-05T08:47:45.828Z,62.10
2022-09-05T08:48:38.381Z,63.42
2022-09-05T08:49:40.379Z,62.96
2022-09-05T08:50:38.417Z,62.40
2022-09-05T08:51:41.900Z,61.10
2022-09-05T08:52:38.342Z,61.60
2022-09-05T08:53:46.521Z,61.60
2022-09-05T08:54:38.329Z,62.43
2022-09-05T08:55:37.329Z,60.61
2022-09-05T08:56:37.277Z,60.61
2022-09-05T08:57:38.103Z,59.45
2022-09-05T08:58:37.263Z,60.14
2022-09-05T08:59:37.269Z,59.85
2022-09-05T09:00:38.347Z,60.05
2022-09-05T09:01:37.256Z,59.95
2022-09-05T09:02:46.672Z,59.75
2022-09-05T09:03:38.288Z,60.49
2022-09-05T09:05:00.722Z,59.69
2022-09-05T09:06:12.043Z,59.07
2022-09-05T09:06:38.199Z,57.68
2022-09-05T09:07:51.439Z,58.57
2022-09-05T09:08:38.167Z,58.54
2022-09-05T09:09:37.243Z,58.37
2022-09-05T09:10:37.143Z,57.75
2022-09-05T09:11:37.197Z,58.15
2022-09-05T09:12:37.166Z,57.03
2022-09-05T09:13:37.124Z,56.53
2022-09-05T09:14:37.102Z,60.53
2022-09-05T09:15:37.116Z,56.93
2022-09-05T09:16:37.124Z,57.59
2022-09-05T09:17:37.076Z,56.70
2022-09-05T09:18:37.058Z,56.48
2022-09-05T09:19:37.067Z,55.56
2022-09-05T09:20:37.078Z,55.13
2022-09-05T09:21:38.058Z,56.85
2022-09-05T09:22:37.035Z,56.51
2022-09-05T09:23:37.015Z,56.90
2022-09-05T09:24:36.996Z,56.08
2022-09-05T09:25:37.033Z,55.32
2022-09-05T09:26:36.979Z,57.57
2022-09-05T09:28:47.597Z,58.02
2022-09-05T09:28:48.185Z,57.23
2022-09-05T09:29:37.943Z,58.06
2022-09-05T09:30:36.978Z,57.07
2022-09-05T09:31:36.953Z,56.68
2022-09-05T09:32:36.889Z,56.23
2022-09-05T09:33:36.884Z,57.08
2022-09-05T09:34:38.272Z,57.55
2022-09-05T09:35:36.900Z,58.15
2022-09-05T09:36:36.865Z,58.13
2022-09-05T09:37:50.604Z,56.13
2022-09-05T09:38:37.863Z,56.45
2022-09-05T09:39:38.136Z,56.02
2022-09-05T09:40:36.861Z,55.66
2022-09-05T09:41:36.817Z,56.74
2022-09-05T09:42:36.822Z,55.56
2022-09-05T09:43:36.794Z,56.85
2022-09-05T09:44:36.787Z,55.04
2022-09-05T09:45:36.802Z,55.93
2022-09-05T09:46:39.544Z,58.18
2022-09-05T09:47:36.814Z,55.83
2022-09-05T09:48:36.741Z,55.46
2022-09-05T09:49:36.741Z,57.24
2022-09-05T09:50:36.767Z,56.70
2022-09-05T09:51:37.726Z,57.03
2022-09-05T09:52:36.700Z,59.03
2022-09-05T09:53:36.884Z,57.12
2022-09-05T09:54:36.738Z,55.28
2022-09-05T09:55:36.876Z,53.18
2022-09-05T09:56:36.666Z,53.60
2022-09-05T09:57:36.675Z,54.81
2022-09-05T09:58:36.641Z,54.54
2022-09-05T09:59:36.615Z,54.77
2022-09-05T10:00:37.637Z,56.42
2022-09-05T10:01:37.271Z,56.62
2022-09-05T10:06:03.214Z,55.38
2022-09-05T10:06:42.351Z,55.10
2022-09-05T10:10:44.732Z,55.49
2022-09-05T10:10:45.621Z,54.83
2022-09-05T10:10:49.224Z,53.12
2022-09-05T10:10:54.449Z,53.35
2022-09-05T10:10:55.123Z,53.67
2022-09-05T10:11:03.108Z,56.59
2022-09-05T10:11:07.915Z,53.03
2022-09-05T10:11:54.772Z,56.15
2022-09-05T10:12:37.472Z,56.65
2022-09-05T10:13:36.478Z,56.23
2022-09-05T10:14:49.672Z,55.01
2022-09-05T10:15:37.463Z,54.86
2022-09-05T10:16:36.497Z,53.75
2022-09-05T10:17:36.476Z,53.75
2022-09-05T10:18:36.433Z,53.94
2022-09-05T10:20:37.400Z,53.30
2022-09-05T10:21:36.404Z,53.86
2022-09-05T10:22:37.435Z,51.13
2022-09-05T10:23:36.372Z,54.55
2022-09-05T10:24:37.378Z,54.73
2022-09-05T10:25:36.363Z,53.69
2022-09-05T10:26:36.394Z,53.57
2022-09-05T10:27:36.388Z,51.89
2022-09-05T10:28:36.318Z,52.39
2022-09-05T10:29:38.503Z,51.00
2022-09-05T10:32:53.638Z,51.97
2022-09-05T10:33:33.839Z,53.15
2022-09-05T10:35:07.861Z,53.05
2022-09-05T10:35:14.945Z,51.69
2022-09-05T10:35:15.499Z,53.74
2022-09-05T10:35:37.691Z,52.51
2022-09-05T10:36:36.335Z,51.69
2022-09-05T10:37:36.524Z,53.72
2022-09-05T10:38:36.227Z,52.66
2022-09-05T10:39:36.242Z,52.93
2022-09-05T10:41:05.057Z,52.91
2022-09-05T10:41:37.216Z,53.67
2022-09-05T10:42:39.860Z,55.16
2022-09-05T10:43:37.148Z,51.76
2022-09-05T10:44:36.140Z,50.49
2022-09-05T10:45:38.834Z,52.53
2022-09-05T10:46:52.157Z,55.65
2022-09-05T10:47:37.116Z,56.93
2022-09-05T10:48:36.117Z,54.88
2022-09-05T10:49:36.128Z,55.80
2022-09-05T10:50:36.099Z,58.46
2022-09-05T10:51:37.733Z,56.35
2022-09-05T10:52:36.082Z,57.90
2022-09-05T10:53:39.184Z,53.87
2022-09-05T10:54:36.064Z,55.18
2022-09-05T10:55:36.036Z,54.01
2022-09-05T10:56:36.061Z,51.10
2022-09-05T10:57:36.025Z,51.00
2022-09-05T11:00:35.517Z,50.16
2022-09-05T11:02:19.384Z,49.77
2022-09-05T11:02:20.212Z,48.79
2022-09-05T11:02:20.818Z,50.68
2022-09-05T11:02:41.149Z,49.62
2022-09-05T11:03:37.090Z,54.16
2022-09-05T11:04:37.153Z,53.38
2022-09-05T11:05:36.971Z,55.70
2022-09-05T11:06:35.959Z,56.79
2022-09-05T11:07:35.915Z,55.55
2022-09-05T11:08:35.916Z,54.21
2022-09-05T11:09:35.903Z,53.03
2022-09-05T11:10:35.893Z,55.53
2022-09-05T11:11:35.923Z,58.65
2022-09-05T11:12:35.878Z,59.04
2022-09-05T11:13:35.859Z,59.66
2022-09-05T11:14:35.836Z,60.28
2022-09-05T11:15:35.910Z,60.55
2022-09-05T11:16:35.925Z,62.04
2022-09-05T11:17:35.824Z,61.83
2022-09-05T11:18:55.356Z,61.80
2022-09-05T11:19:36.819Z,61.18
2022-09-05T11:20:35.982Z,61.69
2022-09-05T11:21:35.769Z,60.14
2022-09-05T11:22:35.801Z,57.98
2022-09-05T11:23:35.750Z,56.48
2022-09-05T11:24:35.733Z,53.42
2022-09-05T11:25:40.323Z,52.36
2022-09-05T11:26:36.775Z,54.17
2022-09-05T11:27:35.721Z,57.12
2022-09-05T11:28:37.691Z,58.13
2022-09-05T11:29:36.693Z,56.45
2022-09-05T11:30:38.716Z,58.29
2022-09-05T11:32:11.807Z,57.97
2022-09-05T11:35:41.246Z,56.57
2022-09-05T11:36:30.965Z,57.64
2022-09-05T11:39:47.843Z,60.66
2022-09-05T11:39:50.798Z,58.12
2022-09-05T11:39:53.893Z,58.86
2022-09-05T11:40:06.719Z,59.58
2022-09-05T11:40:07.230Z,58.18
2022-09-05T11:40:09.882Z,57.90
2022-09-05T11:40:57.761Z,55.13
2022-09-05T11:41:36.579Z,53.39
2022-09-05T11:42:35.582Z,53.44
2022-09-05T11:43:35.531Z,51.89
2022-09-05T11:44:35.571Z,49.90
2022-09-05T11:45:36.754Z,50.61
2022-09-05T11:46:35.584Z,52.40
2022-09-05T11:47:43.447Z,52.19
2022-09-05T11:48:36.495Z,52.83
2022-09-05T11:49:35.471Z,54.06
2022-09-05T11:50:35.454Z,54.09
2022-09-05T11:51:35.463Z,53.42
2022-09-05T11:52:35.486Z,54.59
2022-09-05T11:53:35.434Z,56.13
2022-09-05T11:54:35.401Z,58.40
2022-09-05T11:55:35.400Z,56.27
2022-09-05T11:56:39.650Z,55.41
2022-09-05T11:57:36.423Z,55.33
2022-09-05T11:58:45.244Z,56.15
2022-09-05T11:59:36.360Z,54.96
2022-09-05T12:00:35.432Z,54.93
2022-09-05T12:01:41.168Z,53.72
2022-09-05T12:03:59.901Z,54.81
2022-09-05T12:04:36.492Z,55.58
2022-09-05T12:05:50.723Z,54.22
2022-09-05T12:06:39.297Z,56.08
2022-09-05T12:07:36.332Z,56.72
2022-09-05T12:08:35.299Z,55.55
2022-09-05T12:09:35.267Z,54.90
2022-09-05T12:10:46.817Z,54.27
2022-09-05T12:11:36.244Z,55.41
2022-09-05T12:12:41.585Z,55.66
2022-09-05T12:13:36.229Z,55.43
2022-09-05T12:14:35.244Z,54.49
2022-09-05T12:15:35.215Z,54.06
2022-09-05T12:16:35.341Z,55.41
2022-09-05T12:17:35.871Z,56.23
2022-09-05T12:18:35.152Z,55.93
2022-09-05T12:19:35.137Z,55.70
2022-09-05T12:20:43.629Z,56.31
2022-09-05T12:21:38.166Z,53.64
2022-09-05T12:22:35.159Z,54.02
2022-09-05T12:23:53.666Z,52.31
2022-09-05T12:25:26.352Z,52.93
2022-09-05T12:27:37.048Z,54.11
2022-09-05T12:27:38.832Z,54.24
2022-09-05T12:27:45.493Z,53.47
2022-09-05T12:29:26.672Z,52.26
2022-09-05T12:29:38.747Z,51.77
2022-09-05T12:30:42.466Z,52.46
2022-09-05T12:32:30.969Z,54.96
2022-09-05T12:34:31.873Z,58.59
2022-09-05T12:36:03.651Z,57.44
2022-09-05T12:36:03.803Z,57.59
2022-09-05T12:36:12.902Z,55.66
2022-09-05T12:40:16.645Z,56.82
2022-09-05T12:40:38.441Z,55.83
2022-09-05T12:40:51.947Z,56.45
2022-09-05T12:40:54.651Z,54.88
2022-09-05T12:41:38.397Z,53.89
2022-09-05T12:41:46.219Z,52.58
2022-09-05T12:42:10.809Z,53.57
2022-09-05T12:42:48.491Z,54.39
2022-09-05T12:44:36.247Z,55.28
2022-09-05T12:44:40.017Z,55.93
2022-09-05T12:45:37.230Z,57.72
2022-09-05T12:46:34.879Z,58.40
2022-09-05T12:47:34.896Z,60.31
2022-09-05T12:48:38.876Z,60.82
2022-09-05T12:49:35.263Z,61.34
2022-09-05T12:50:34.815Z,61.07
2022-09-05T12:51:45.770Z,62.40
2022-09-05T12:52:35.846Z,62.62
2022-09-05T12:53:34.791Z,64.12